Time;durP1;ratioP1;P1;durP2;ratioP2;P2;SDS_P1;SDS_P2;PMS_P1;PMS_P2;Temp;Humidity;BMP_temperature;BMP_pressure;BME280_temperature;BME280_humidity;BME280_pressure;Samples;Min_cycle;Max_cycle;Signal;HPM_P1;HPM_P2
2023/01/23 00:01:24;;;;;;;13.50;8.13;;;1.40;99.90;;;;;;5005809;28;20036;-79
2023/01/23 00:03:50;;;;;;;11.32;7.63;;;1.40;99.90;;;;;;5022988;28;20022;-79
2023/01/23 00:06:16;;;;;;;10.15;6.97;;;1.40;99.90;;;;;;5018850;28;20104;-79
2023/01/23 00:08:44;;;;;;;10.57;6.07;;;1.40;99.90;;;;;;5008208;28;20034;-79
2023/01/23 00:11:13;;;;;;;14.75;9.45;;;1.40;99.90;;;;;;5020563;28;20072;-79
2023/01/23 00:13:39;;;;;;;14.20;7.82;;;1.40;99.90;;;;;;5021235;28;20394;-79
2023/01/23 00:16:11;;;;;;;10.95;6.45;;;1.40;99.90;;;;;;5005362;28;20028;-79
2023/01/23 00:18:37;;;;;;;11.82;6.68;;;1.30;99.90;;;;;;4998874;28;20512;-79
2023/01/23 00:21:04;;;;;;;9.43;5.40;;;1.30;99.90;;;;;;5009857;28;20022;-79
2023/01/23 00:23:31;;;;;;;10.05;5.53;;;1.30;99.90;;;;;;5018971;28;20033;-79
2023/01/23 00:26:04;;;;;;;8.35;4.00;;;1.20;99.90;;;;;;5023357;28;20037;-79
2023/01/23 00:28:30;;;;;;;15.15;8.63;;;1.20;99.90;;;;;;5015187;28;20037;-79
2023/01/23 00:31:17;;;;;;;10.82;6.82;;;1.30;99.90;;;;;;5004784;28;20022;-79
2023/01/23 00:33:43;;;;;;;14.75;7.70;;;1.20;99.90;;;;;;5022268;28;20125;-79
2023/01/23 00:36:11;;;;;;;11.25;6.38;;;1.20;99.90;;;;;;5009235;28;20534;-79
2023/01/23 00:38:36;;;;;;;10.23;6.18;;;1.30;99.90;;;;;;5023614;28;20026;-79
2023/01/23 00:41:03;;;;;;;13.27;8.75;;;1.20;99.90;;;;;;5020641;28;20029;-79
2023/01/23 00:43:29;;;;;;;14.30;6.63;;;1.30;99.90;;;;;;5005138;28;20033;-79
2023/01/23 00:45:55;;;;;;;11.13;6.53;;;1.30;99.90;;;;;;5004156;28;20037;-79
2023/01/23 00:48:21;;;;;;;12.40;6.80;;;1.30;99.90;;;;;;5025922;28;20144;-79
2023/01/23 00:50:47;;;;;;;12.60;6.50;;;1.30;99.90;;;;;;5018446;28;20542;-78
2023/01/23 00:53:13;;;;;;;11.85;6.10;;;1.30;99.90;;;;;;5022418;28;20482;-79
2023/01/23 00:55:39;;;;;;;18.48;8.82;;;1.30;99.90;;;;;;5003438;28;20026;-78
2023/01/23 00:58:05;;;;;;;21.23;10.35;;;1.30;99.90;;;;;;5008770;28;20033;-78
2023/01/23 01:00:31;;;;;;;15.57;8.68;;;1.40;99.90;;;;;;5023016;28;20034;-78
2023/01/23 01:02:57;;;;;;;13.20;7.40;;;1.40;99.90;;;;;;5003276;28;20136;-79
2023/01/23 01:05:22;;;;;;;11.52;6.43;;;1.40;99.90;;;;;;5020103;28;20138;-78
2023/01/23 01:07:48;;;;;;;10.27;5.95;;;1.40;99.90;;;;;;5017830;28;20045;-79
2023/01/23 01:10:14;;;;;;;9.50;4.97;;;1.40;99.90;;;;;;5022043;28;20499;-79
2023/01/23 01:12:40;;;;;;;9.63;4.70;;;1.40;99.90;;;;;;5019816;28;20025;-78
2023/01/23 01:15:07;;;;;;;9.52;5.05;;;1.40;99.90;;;;;;5018450;28;20044;-78
2023/01/23 01:17:33;;;;;;;11.25;5.18;;;1.40;99.90;;;;;;5021229;28;20026;-79
2023/01/23 01:19:59;;;;;;;7.32;4.28;;;1.40;99.90;;;;;;5009123;28;20053;-79
2023/01/23 01:22:25;;;;;;;9.50;4.88;;;1.50;99.90;;;;;;5021555;28;20058;-78
2023/01/23 01:24:50;;;;;;;7.50;4.28;;;1.50;99.90;;;;;;5004536;28;20022;-79
2023/01/23 01:27:16;;;;;;;8.73;3.65;;;1.50;99.90;;;;;;5007653;28;20092;-79
2023/01/23 01:29:42;;;;;;;7.55;3.90;;;1.50;99.90;;;;;;5017020;28;20026;-78
2023/01/23 01:32:08;;;;;;;6.28;3.33;;;1.50;99.90;;;;;;5020405;28;20045;-78
2023/01/23 01:34:33;;;;;;;7.57;3.80;;;1.50;99.90;;;;;;5019683;28;20223;-79
2023/01/23 01:36:59;;;;;;;7.93;4.05;;;1.50;99.90;;;;;;5013612;28;20030;-78
2023/01/23 01:39:25;;;;;;;7.38;4.00;;;1.50;99.90;;;;;;5019847;28;20112;-79
2023/01/23 01:41:50;;;;;;;17.58;8.55;;;1.50;99.90;;;;;;5017678;28;20025;-79
2023/01/23 01:44:18;;;;;;;14.05;7.40;;;1.60;99.90;;;;;;5009846;28;20060;-79
2023/01/23 01:46:45;;;;;;;12.27;6.60;;;1.50;99.90;;;;;;5020751;28;20035;-78
2023/01/23 01:49:16;;;;;;;14.98;7.30;;;1.60;99.90;;;;;;5015284;28;20049;-79
2023/01/23 01:52:11;;;;;;;10.40;5.72;;;1.60;99.90;;;;;;5004700;28;20030;-78
2023/01/23 01:54:41;;;;;;;11.25;6.20;;;1.50;99.90;;;;;;5020509;28;20076;-78
2023/01/23 01:57:22;;;;;;;9.18;5.95;;;1.60;99.90;;;;;;5002552;28;20025;-79
2023/01/23 01:59:58;;;;;;;11.35;6.70;;;1.60;99.90;;;;;;4998665;28;20025;-78
2023/01/23 02:02:42;;;;;;;11.18;6.95;;;1.60;99.90;;;;;;5003756;28;20026;-79
2023/01/23 02:05:18;;;;;;;8.95;5.97;;;1.60;99.90;;;;;;5017551;28;20073;-79
2023/01/23 02:07:55;;;;;;;10.23;6.07;;;1.60;99.90;;;;;;5005842;28;20483;-78
2023/01/23 02:10:21;;;;;;;10.48;4.80;;;1.60;99.90;;;;;;5023426;28;20530;-79
2023/01/23 02:12:49;;;;;;;10.73;5.32;;;1.60;99.90;;;;;;5014678;28;20025;-78
2023/01/23 02:15:16;;;;;;;9.27;5.50;;;1.60;99.90;;;;;;5020643;28;20037;-78
2023/01/23 02:17:44;;;;;;;8.45;5.13;;;1.60;99.90;;;;;;5026105;28;20059;-79
2023/01/23 02:20:22;;;;;;;9.75;4.88;;;1.60;99.90;;;;;;5014806;28;20368;-78
2023/01/23 02:23:12;;;;;;;9.00;4.25;;;1.70;99.90;;;;;;5020575;28;20034;-79
2023/01/23 02:25:44;;;;;;;7.72;4.68;;;1.60;99.90;;;;;;5019821;28;20612;-78
2023/01/23 02:28:15;;;;;;;7.88;4.45;;;1.60;99.90;;;;;;5026267;28;20124;-79
2023/01/23 02:30:45;;;;;;;8.48;4.13;;;1.70;99.90;;;;;;5008642;28;20466;-79
2023/01/23 02:33:23;;;;;;;8.82;4.05;;;1.60;99.90;;;;;;5016670;28;20113;-78
2023/01/23 02:35:50;;;;;;;8.45;4.22;;;1.60;99.90;;;;;;4997727;28;20029;-79
2023/01/23 02:38:21;;;;;;;9.20;5.13;;;1.70;99.90;;;;;;5025378;28;20360;-78
2023/01/23 02:40:47;;;;;;;;;;;1.70;99.90;;;;;;5024919;28;20629;-78
2023/01/23 02:43:21;;;;;;;7.72;4.20;;;1.70;99.90;;;;;;5021459;28;20007;-79
2023/01/23 02:45:54;;;;;;;7.35;4.13;;;1.60;99.90;;;;;;5012384;28;20517;-79
2023/01/23 02:48:21;;;;;;;8.30;4.43;;;1.70;99.90;;;;;;5021519;28;20050;-79
2023/01/23 02:50:47;;;;;;;7.45;4.13;;;1.70;99.90;;;;;;5004511;28;20018;-79
2023/01/23 02:53:13;;;;;;;6.82;3.60;;;1.70;99.90;;;;;;5011921;28;20036;-79
2023/01/23 02:55:42;;;;;;;9.82;6.22;;;1.60;99.90;;;;;;5011819;28;20025;-79
2023/01/23 03:00:53;;;;;;;10.82;4.50;;;1.70;99.90;;;;;;5021941;28;20061;-79
2023/01/23 03:03:21;;;;;;;8.90;4.82;;;1.70;99.90;;;;;;5010694;28;20408;-79
2023/01/23 03:05:47;;;;;;;9.55;5.00;;;1.60;99.90;;;;;;5028143;28;20025;-78
2023/01/23 03:08:13;;;;;;;11.25;5.60;;;1.70;99.90;;;;;;5009973;28;20046;-78
2023/01/23 03:10:38;;;;;;;9.85;5.28;;;1.60;99.90;;;;;;5024126;28;20060;-79
2023/01/23 03:13:06;;;;;;;10.57;4.63;;;1.60;99.90;;;;;;5023383;28;20584;-79
2023/01/23 03:15:37;;;;;;;9.20;4.88;;;1.60;99.90;;;;;;5008722;28;20108;-79
2023/01/23 03:18:03;;;;;;;10.52;5.60;;;1.60;99.90;;;;;;5024561;28;20029;-78
2023/01/23 03:20:36;;;;;;;10.65;6.15;;;1.70;99.90;;;;;;5010832;28;20022;-79
2023/01/23 03:23:02;;;;;;;9.30;5.75;;;1.70;99.90;;;;;;5022254;28;20382;-78
2023/01/23 03:25:27;;;;;;;7.95;4.97;;;1.70;99.90;;;;;;5005043;28;20038;-78
2023/01/23 03:27:53;;;;;;;11.45;7.07;;;1.70;99.90;;;;;;5012200;28;20037;-79
2023/01/23 03:30:20;;;;;;;15.77;9.00;;;1.70;99.90;;;;;;5011818;28;20021;-79
2023/01/23 03:32:47;;;;;;;15.75;8.05;;;1.70;99.90;;;;;;5005272;28;20076;-78
2023/01/23 03:35:15;;;;;;;13.13;8.15;;;1.70;99.90;;;;;;5025558;28;20504;-78
2023/01/23 03:37:42;;;;;;;11.75;6.90;;;1.70;99.90;;;;;;5024417;28;20393;-79
2023/01/23 03:43:00;;;;;;;12.60;6.93;;;1.70;99.90;;;;;;5036321;28;20025;-79
2023/01/23 03:45:27;;;;;;;10.70;6.22;;;1.70;99.90;;;;;;5006548;28;20446;-79
2023/01/23 03:47:53;;;;;;;9.85;5.78;;;1.70;99.90;;;;;;5006097;28;20120;-78
2023/01/23 03:50:19;;;;;;;11.02;5.60;;;1.70;99.90;;;;;;5005903;28;20064;-79
2023/01/23 03:52:45;;;;;;;11.20;6.47;;;1.70;99.90;;;;;;5022348;28;20065;-78
2023/01/23 03:55:10;;;;;;;10.93;5.35;;;1.70;99.90;;;;;;5024103;28;20026;-78
2023/01/23 03:57:37;;;;;;;16.63;9.95;;;1.70;99.90;;;;;;5022487;28;20033;-79
2023/01/23 04:00:23;;;;;;;11.80;6.20;;;1.70;99.90;;;;;;5023647;28;20030;-79
2023/01/23 04:02:56;;;;;;;11.85;7.38;;;1.70;99.90;;;;;;5019989;28;20049;-79
2023/01/23 04:05:22;;;;;;;15.65;8.18;;;1.70;99.90;;;;;;5026196;28;20498;-78
2023/01/23 04:07:48;;;;;;;13.45;7.70;;;1.70;99.90;;;;;;5007849;28;20426;-78
2023/01/23 04:10:14;;;;;;;10.65;7.38;;;1.70;99.90;;;;;;5021736;28;20037;-79
2023/01/23 04:12:42;;;;;;;11.57;6.80;;;1.70;99.90;;;;;;5022509;28;20026;-78
2023/01/23 04:15:09;;;;;;;12.00;6.35;;;1.70;99.90;;;;;;5020162;28;20037;-79
2023/01/23 04:17:35;;;;;;;10.10;5.75;;;1.70;99.90;;;;;;5010875;28;20030;-79
2023/01/23 04:20:02;;;;;;;12.13;5.50;;;1.70;99.90;;;;;;5020626;28;20388;-78
2023/01/23 04:22:29;;;;;;;8.68;5.22;;;1.70;99.90;;;;;;5005519;28;20498;-79
2023/01/23 04:24:55;;;;;;;9.82;4.45;;;1.70;99.90;;;;;;5025532;28;20052;-79
2023/01/23 04:27:20;;;;;;;8.48;5.18;;;1.70;99.90;;;;;;5034692;28;20372;-79
2023/01/23 04:29:49;;;;;;;7.90;5.03;;;1.70;99.90;;;;;;5022292;28;20037;-79
2023/01/23 04:32:14;;;;;;;7.90;4.22;;;1.70;99.90;;;;;;5007290;28;20040;-78
2023/01/23 04:34:44;;;;;;;12.05;5.68;;;1.70;99.90;;;;;;5007770;28;20390;-78
2023/01/23 04:37:10;;;;;;;9.85;5.13;;;1.70;99.90;;;;;;5021152;28;20044;-79
2023/01/23 04:39:35;;;;;;;8.30;4.55;;;1.70;99.90;;;;;;5010032;28;20040;-79
2023/01/23 04:42:01;;;;;;;10.32;5.53;;;1.70;99.90;;;;;;5004598;28;20030;-79
2023/01/23 04:44:42;;;;;;;10.10;5.90;;;1.70;99.90;;;;;;5021656;28;20026;-79
2023/01/23 04:47:26;;;;;;;9.52;4.75;;;1.70;99.90;;;;;;5015930;28;20056;-78
2023/01/23 04:49:52;;;;;;;10.48;4.35;;;1.70;99.90;;;;;;5008641;28;20042;-79
2023/01/23 04:52:18;;;;;;;9.30;4.07;;;1.70;99.90;;;;;;5020160;28;20017;-79
2023/01/23 04:54:51;;;;;;;7.28;3.78;;;1.70;99.90;;;;;;5019359;28;20032;-79
2023/01/23 04:57:17;;;;;;;9.90;4.90;;;1.70;99.90;;;;;;5001904;28;20037;-79
2023/01/23 04:59:43;;;;;;;8.02;4.40;;;1.70;99.90;;;;;;5020759;28;20034;-79
2023/01/23 05:02:09;;;;;;;6.40;3.88;;;1.70;99.90;;;;;;5022878;28;20478;-79
2023/01/23 05:04:40;;;;;;;8.95;4.10;;;1.70;99.90;;;;;;5009655;28;20032;-79
2023/01/23 05:07:08;;;;;;;7.93;4.10;;;1.70;99.90;;;;;;5020151;28;20033;-79
2023/01/23 05:09:38;;;;;;;7.72;4.00;;;1.70;99.90;;;;;;5006628;28;20038;-78
2023/01/23 05:12:05;;;;;;;8.45;4.80;;;1.70;99.90;;;;;;5005563;28;20376;-79
2023/01/23 05:14:33;;;;;;;8.15;4.35;;;1.70;99.90;;;;;;5026455;28;20030;-79
2023/01/23 05:16:59;;;;;;;6.78;4.15;;;1.80;99.90;;;;;;5015277;28;20471;-79
2023/01/23 05:19:30;;;;;;;6.20;3.90;;;1.70;99.90;;;;;;5020318;28;20021;-79
2023/01/23 05:21:57;;;;;;;7.90;4.82;;;1.70;99.90;;;;;;5020661;28;20053;-79
2023/01/23 05:24:24;;;;;;;7.43;4.30;;;1.70;99.90;;;;;;5013114;28;20049;-79
2023/01/23 05:26:50;;;;;;;6.20;3.17;;;1.70;99.90;;;;;;5024933;28;20069;-79
2023/01/23 05:29:17;;;;;;;10.05;5.30;;;1.80;99.90;;;;;;5003594;28;20034;-79
2023/01/23 05:31:59;;;;;;;20.77;8.85;;;1.80;99.90;;;;;;5010723;28;20029;-79
2023/01/23 05:34:37;;;;;;;12.70;6.65;;;1.80;99.90;;;;;;5017600;28;20029;-79
2023/01/23 05:37:11;;;;;;;15.25;10.13;;;1.70;99.90;;;;;;5007475;28;20031;-79
2023/01/23 05:39:38;;;;;;;13.07;8.48;;;1.80;99.90;;;;;;5021684;28;20071;-79
2023/01/23 05:42:04;;;;;;;12.70;7.90;;;1.80;99.90;;;;;;5002333;28;20025;-79
2023/01/23 05:44:48;;;;;;;11.82;7.68;;;1.80;99.90;;;;;;5021459;28;20037;-79
2023/01/23 05:47:24;;;;;;;11.25;6.88;;;1.80;99.90;;;;;;5008871;28;20048;-79
2023/01/23 05:49:50;;;;;;;10.57;6.40;;;1.80;99.90;;;;;;5002696;28;20099;-79
2023/01/23 05:52:16;;;;;;;15.48;6.85;;;1.80;99.90;;;;;;5009551;28;20034;-79
2023/01/23 05:54:42;;;;;;;9.18;5.57;;;1.80;99.90;;;;;;5020710;28;20037;-79
2023/01/23 05:57:10;;;;;;;9.77;5.85;;;1.80;99.90;;;;;;5013362;28;20417;-79
2023/01/23 05:59:56;;;;;;;12.35;6.40;;;1.80;99.90;;;;;;5018478;28;20030;-79
2023/01/23 06:02:40;;;;;;;9.05;5.85;;;1.80;99.90;;;;;;5016014;28;20446;-79
2023/01/23 06:05:24;;;;;;;10.18;6.28;;;1.80;99.90;;;;;;5019461;28;20423;-79
2023/01/23 06:08:00;;;;;;;8.57;5.63;;;1.80;99.90;;;;;;5013741;28;20115;-79
2023/01/23 06:10:26;;;;;;;10.77;5.97;;;1.90;99.90;;;;;;5015691;28;20054;-79
2023/01/23 06:12:51;;;;;;;10.35;5.32;;;1.80;99.90;;;;;;5024223;28;20397;-79
2023/01/23 06:15:17;;;;;;;8.63;5.05;;;1.80;99.90;;;;;;5015212;28;20487;-79
2023/01/23 06:17:43;;;;;;;7.55;4.97;;;1.80;99.90;;;;;;5003523;28;20540;-79
2023/01/23 06:20:11;;;;;;;7.40;4.38;;;1.80;99.90;;;;;;5007704;28;20029;-79
2023/01/23 06:22:37;;;;;;;9.35;4.88;;;1.80;99.90;;;;;;5029488;28;20046;-78
2023/01/23 06:25:10;;;;;;;12.35;6.53;;;1.80;99.90;;;;;;5022975;28;20030;-79
2023/01/23 06:27:35;;;;;;;9.13;5.53;;;1.80;99.90;;;;;;5005312;28;20038;-79
2023/01/23 06:30:05;;;;;;;8.15;4.88;;;1.80;99.90;;;;;;5011507;28;20025;-79
2023/01/23 06:32:34;;;;;;;10.25;6.07;;;1.80;99.90;;;;;;5028126;28;20425;-79
2023/01/23 06:35:02;;;;;;;8.73;4.90;;;1.80;99.90;;;;;;5008050;28;20022;-79
2023/01/23 06:37:32;;;;;;;8.52;5.07;;;1.80;99.90;;;;;;5009439;28;20029;-79
2023/01/23 06:39:58;;;;;;;7.65;5.18;;;1.80;99.90;;;;;;5023648;28;20432;-78
2023/01/23 06:42:24;;;;;;;11.80;5.68;;;1.80;99.90;;;;;;5024878;28;20082;-78
2023/01/23 06:44:51;;;;;;;11.60;6.63;;;1.80;99.90;;;;;;5019893;28;20026;-78
2023/01/23 06:47:19;;;;;;;9.98;6.53;;;1.90;99.90;;;;;;5007006;28;20041;-78
2023/01/23 06:49:52;;;;;;;10.57;5.97;;;1.80;99.90;;;;;;5027746;28;20046;-78
2023/01/23 06:52:18;;;;;;;12.80;7.03;;;1.90;99.90;;;;;;4974889;28;20387;-78
2023/01/23 06:54:45;;;;;;;12.07;5.95;;;1.90;99.90;;;;;;5025544;28;20490;-78
2023/01/23 06:57:12;;;;;;;14.50;7.40;;;1.90;99.90;;;;;;5027544;28;20030;-78
2023/01/23 06:59:38;;;;;;;13.55;7.97;;;1.90;99.90;;;;;;5009322;28;20476;-78
2023/01/23 07:02:10;;;;;;;12.05;6.72;;;1.90;99.90;;;;;;5010964;28;20068;-79
2023/01/23 07:04:47;;;;;;;9.27;6.07;;;1.90;99.90;;;;;;5027131;28;20651;-78
2023/01/23 07:07:13;;;;;;;12.07;7.80;;;1.90;99.90;;;;;;5009179;28;20055;-79
2023/01/23 07:09:40;;;;;;;14.10;7.53;;;1.90;99.90;;;;;;5026047;28;20043;-78
2023/01/23 07:12:16;;;;;;;15.13;6.95;;;1.90;99.90;;;;;;5010631;28;20506;-78
2023/01/23 07:14:43;;;;;;;10.70;6.00;;;1.90;99.90;;;;;;5025250;28;20115;-78
2023/01/23 07:17:10;;;;;;;11.40;6.25;;;2.00;99.90;;;;;;5008512;28;21663;-79
2023/01/23 07:19:36;;;;;;;13.73;7.03;;;2.00;99.90;;;;;;5009877;28;20991;-78
2023/01/23 07:22:05;;;;;;;12.27;6.73;;;2.00;99.90;;;;;;5025915;28;20622;-78
2023/01/23 07:24:31;;;;;;;12.23;7.32;;;2.00;99.90;;;;;;5010064;28;20032;-78
2023/01/23 07:26:57;;;;;;;12.80;7.22;;;2.00;99.90;;;;;;5024358;28;20072;-79
2023/01/23 07:29:23;;;;;;;10.23;6.28;;;2.00;99.90;;;;;;5024945;28;20804;-78
2023/01/23 07:31:48;;;;;;;11.25;6.82;;;2.00;99.90;;;;;;5025849;28;20485;-77
2023/01/23 07:34:14;;;;;;;10.07;5.85;;;2.00;99.90;;;;;;5009671;28;20029;-79
2023/01/23 07:36:40;;;;;;;9.80;5.82;;;2.00;99.90;;;;;;5008601;28;20649;-79
2023/01/23 07:39:05;;;;;;;10.88;5.85;;;2.00;99.90;;;;;;5024963;28;20041;-77
2023/01/23 07:41:31;;;;;;;9.25;4.93;;;2.10;99.90;;;;;;5008702;28;20278;-78
2023/01/23 07:44:00;;;;;;;10.32;5.45;;;2.00;99.90;;;;;;5024269;28;20394;-78
2023/01/23 07:46:26;;;;;;;8.27;4.88;;;2.00;99.90;;;;;;5009587;28;20026;-78
2023/01/23 07:48:52;;;;;;;8.65;5.05;;;2.10;99.90;;;;;;5009255;28;20057;-79
2023/01/23 07:51:18;;;;;;;10.68;6.13;;;2.10;99.90;;;;;;5004989;28;20548;-79
2023/01/23 07:53:43;;;;;;;8.27;4.45;;;2.10;99.90;;;;;;5020839;28;20457;-79
2023/01/23 07:56:09;;;;;;;7.68;4.85;;;2.10;99.90;;;;;;5020807;28;20025;-79
2023/01/23 07:58:35;;;;;;;8.55;5.05;;;2.10;99.90;;;;;;5008689;28;20057;-79
2023/01/23 08:01:07;;;;;;;7.93;5.00;;;2.10;99.90;;;;;;5011195;28;20033;-79
2023/01/23 08:03:33;;;;;;;10.05;5.82;;;2.10;99.90;;;;;;5023426;28;20294;-79
2023/01/23 08:05:59;;;;;;;10.55;6.18;;;2.20;99.90;;;;;;5024716;28;20068;-79
2023/01/23 08:08:24;;;;;;;11.27;5.95;;;2.10;99.90;;;;;;5024079;28;20037;-80
2023/01/23 08:10:50;;;;;;;11.80;6.10;;;2.20;99.90;;;;;;5024766;28;20025;-79
2023/01/23 08:13:16;;;;;;;9.15;5.43;;;2.20;99.90;;;;;;5021279;28;20541;-79
2023/01/23 08:15:41;;;;;;;8.23;5.03;;;2.20;99.90;;;;;;5009224;28;20029;-79
2023/01/23 08:18:07;;;;;;;8.00;5.40;;;2.20;99.90;;;;;;5019116;28;20250;-79
2023/01/23 08:20:33;;;;;;;7.32;4.10;;;2.20;99.90;;;;;;5021001;28;20557;-79
2023/01/23 08:23:00;;;;;;;7.30;4.78;;;2.20;99.90;;;;;;5015918;28;20030;-78
2023/01/23 08:25:26;;;;;;;9.65;5.15;;;2.20;99.90;;;;;;5019712;28;20040;-79
2023/01/23 08:27:52;;;;;;;8.13;5.15;;;2.30;99.90;;;;;;5022357;28;20025;-79
2023/01/23 08:30:18;;;;;;;9.45;5.57;;;2.30;99.90;;;;;;5018648;28;20171;-78
2023/01/23 08:32:43;;;;;;;10.70;5.97;;;2.30;99.90;;;;;;5018294;28;20025;-79
2023/01/23 08:35:09;;;;;;;12.13;5.85;;;2.30;99.90;;;;;;5005245;28;20030;-79
2023/01/23 08:37:35;;;;;;;8.45;4.95;;;2.30;99.90;;;;;;5010212;28;20040;-79
2023/01/23 08:40:01;;;;;;;10.68;6.07;;;2.30;99.90;;;;;;5025431;28;20057;-79
2023/01/23 08:42:27;;;;;;;12.98;6.32;;;2.40;99.90;;;;;;5009026;28;20083;-79
2023/01/23 08:44:53;;;;;;;13.40;8.48;;;2.40;99.90;;;;;;5003810;28;20382;-78
2023/01/23 08:47:18;;;;;;;14.40;8.95;;;2.40;99.90;;;;;;5018045;28;20041;-79
2023/01/23 08:49:44;;;;;;;11.32;7.32;;;2.40;99.90;;;;;;5018853;28;20038;-79
2023/01/23 08:52:10;;;;;;;13.07;7.72;;;2.40;99.90;;;;;;5018585;28;20029;-78
2023/01/23 08:54:35;;;;;;;10.27;6.28;;;2.40;99.90;;;;;;5014222;28;20113;-79
2023/01/23 08:57:01;;;;;;;13.05;7.13;;;2.40;99.90;;;;;;5021250;28;20029;-79
2023/01/23 08:59:27;;;;;;;10.85;6.22;;;2.50;99.90;;;;;;5023479;28;20120;-79
2023/01/23 09:01:53;;;;;;;11.52;7.05;;;2.50;99.90;;;;;;5001700;28;20036;-79
2023/01/23 09:04:19;;;;;;;12.90;7.03;;;2.50;99.90;;;;;;5017861;28;20033;-79
2023/01/23 09:06:44;;;;;;;10.63;6.90;;;2.50;99.90;;;;;;5021575;28;20046;-79
2023/01/23 09:09:10;;;;;;;10.68;5.47;;;2.60;99.90;;;;;;5008168;28;20084;-79
2023/01/23 09:11:35;;;;;;;12.10;5.82;;;2.50;99.90;;;;;;5003184;28;20386;-79
2023/01/23 09:14:01;;;;;;;10.82;6.07;;;2.60;99.90;;;;;;5015097;28;20022;-79
2023/01/23 09:16:27;;;;;;;12.50;7.10;;;2.70;99.90;;;;;;5017821;28;20030;-79
2023/01/23 09:18:55;;;;;;;11.32;6.50;;;2.70;99.90;;;;;;5017691;28;20084;-79
2023/01/23 09:21:20;;;;;;;12.68;6.90;;;2.70;99.90;;;;;;5018273;28;20095;-79
2023/01/23 09:23:46;;;;;;;13.10;6.95;;;2.70;99.90;;;;;;5026042;28;20124;-79
2023/01/23 09:26:13;;;;;;;13.77;6.85;;;2.70;99.90;;;;;;5018453;28;20033;-79
2023/01/23 09:28:41;;;;;;;18.48;8.48;;;2.80;99.90;;;;;;5022568;28;20041;-79
2023/01/23 09:31:10;;;;;;;14.73;6.32;;;2.80;99.90;;;;;;5005374;28;20029;-79
2023/01/23 09:33:35;;;;;;;12.65;6.10;;;2.80;99.90;;;;;;5025101;28;20142;-78
2023/01/23 09:36:02;;;;;;;15.18;8.15;;;2.80;99.90;;;;;;5012511;28;20160;-79
2023/01/23 09:38:28;;;;;;;14.38;7.68;;;2.80;99.90;;;;;;5019048;28;20096;-79
2023/01/23 09:40:56;;;;;;;14.88;9.40;;;2.90;99.90;;;;;;5002465;28;20376;-79
2023/01/23 09:43:31;;;;;;;16.77;8.82;;;3.00;99.90;;;;;;4999345;28;20029;-78
2023/01/23 09:46:09;;;;;;;15.43;9.10;;;2.90;99.90;;;;;;4986778;28;20069;-77
2023/01/23 09:49:10;;;;;;;14.43;7.70;;;3.00;99.90;;;;;;5022489;28;20049;-79
2023/01/23 09:51:53;;;;;;;13.63;7.10;;;3.00;99.90;;;;;;5016157;28;20032;-79
2023/01/23 09:54:37;;;;;;;11.55;6.03;;;3.00;99.90;;;;;;5012675;28;20030;-79
2023/01/23 09:57:11;;;;;;;15.35;7.40;;;3.10;99.90;;;;;;5002365;28;20034;-79
2023/01/23 09:59:38;;;;;;;12.77;7.50;;;3.10;99.90;;;;;;5015005;28;20149;-79
2023/01/23 10:02:18;;;;;;;12.63;7.45;;;3.10;99.90;;;;;;5003712;28;20041;-78
2023/01/23 10:04:48;;;;;;;14.90;7.75;;;3.10;99.90;;;;;;5004378;28;20518;-78
2023/01/23 10:07:48;;;;;;;13.55;7.55;;;3.20;99.90;;;;;;5002729;28;20037;-79
2023/01/23 10:10:42;;;;;;;14.90;7.43;;;3.20;99.90;;;;;;5002025;28;20120;-79
2023/01/23 10:13:25;;;;;;;14.73;7.45;;;3.20;99.90;;;;;;5016468;28;20651;-79
2023/01/23 10:16:11;;;;;;;10.63;5.90;;;3.20;99.90;;;;;;5006987;28;20061;-80
2023/01/23 10:19:18;;;;;;;10.10;6.13;;;3.30;99.90;;;;;;5019879;28;20398;-79
2023/01/23 10:21:44;;;;;;;11.68;6.55;;;3.40;99.90;;;;;;4964815;28;20103;-78
2023/01/23 10:24:28;;;;;;;12.15;6.50;;;3.40;99.90;;;;;;4968922;28;20038;-79
2023/01/23 10:26:59;;;;;;;10.75;6.93;;;3.40;99.90;;;;;;4972469;28;20416;-79
2023/01/23 10:29:41;;;;;;;14.60;7.93;;;3.50;99.90;;;;;;4959813;28;20081;-79
2023/01/23 10:32:22;;;;;;;13.52;7.63;;;3.40;99.90;;;;;;4980943;28;20046;-78
2023/01/23 10:34:52;;;;;;;12.73;7.80;;;3.50;99.90;;;;;;4967729;28;20050;-79
2023/01/23 10:37:35;;;;;;;12.57;6.03;;;3.50;99.90;;;;;;4945195;28;20551;-79
2023/01/23 10:40:09;;;;;;;11.85;6.57;;;3.60;99.90;;;;;;4974449;28;20171;-79
2023/01/23 10:42:35;;;;;;;12.93;7.72;;;3.50;99.90;;;;;;4977868;28;20046;-80
2023/01/23 10:45:01;;;;;;;11.98;7.22;;;3.50;99.90;;;;;;4968561;28;20057;-79
2023/01/23 10:47:33;;;;;;;12.73;6.88;;;3.60;99.90;;;;;;4975755;28;20116;-79
2023/01/23 10:49:59;;;;;;;13.00;7.47;;;3.60;99.90;;;;;;4950779;28;20093;-79
2023/01/23 10:52:28;;;;;;;10.90;6.18;;;3.60;99.90;;;;;;4979987;28;20038;-79
2023/01/23 10:54:53;;;;;;;12.30;7.25;;;3.60;99.90;;;;;;4952111;28;20023;-79
2023/01/23 10:57:35;;;;;;;15.02;8.45;;;3.60;99.90;;;;;;4969630;28;20080;-79
2023/01/23 11:00:15;;;;;;;12.75;7.32;;;3.50;99.90;;;;;;5015872;28;20029;-79
2023/01/23 11:02:42;;;;;;;12.02;6.90;;;3.60;99.90;;;;;;5018713;28;20211;-79
2023/01/23 11:05:42;;;;;;;12.23;7.18;;;3.60;99.90;;;;;;5019395;28;20138;-80
2023/01/23 11:08:22;;;;;;;10.87;6.07;;;3.70;99.90;;;;;;5018613;28;20033;-80
2023/01/23 11:10:48;;;;;;;14.73;7.75;;;3.60;99.90;;;;;;5008479;28;20083;-79
2023/01/23 11:13:28;;;;;;;11.48;7.32;;;3.60;99.90;;;;;;5017204;28;20506;-79
2023/01/23 11:15:54;;;;;;;15.35;7.82;;;3.70;99.90;;;;;;5024373;28;20064;-78
2023/01/23 11:18:38;;;;;;;13.10;7.57;;;3.70;99.90;;;;;;5009775;28;20069;-78
2023/01/23 11:21:04;;;;;;;12.55;7.63;;;3.70;99.90;;;;;;4998344;28;20091;-79
2023/01/23 11:23:32;;;;;;;16.45;8.70;;;3.70;99.90;;;;;;5015686;28;20018;-79
2023/01/23 11:25:58;;;;;;;15.00;9.20;;;3.70;99.90;;;;;;5018911;28;20045;-79
2023/01/23 11:28:45;;;;;;;14.25;8.60;;;3.80;99.90;;;;;;5026661;28;20491;-80
2023/01/23 11:31:28;;;;;;;14.93;9.40;;;3.80;99.90;;;;;;5008610;28;20038;-79
2023/01/23 11:34:12;;;;;;;16.92;9.45;;;3.90;99.90;;;;;;5004068;28;20029;-79
2023/01/23 11:36:44;;;;;;;13.70;8.32;;;3.90;99.90;;;;;;5008929;28;20145;-79
2023/01/23 11:39:15;;;;;;;16.67;8.70;;;3.90;99.90;;;;;;5009662;28;20061;-80
2023/01/23 11:41:43;;;;;;;16.77;9.38;;;4.00;99.90;;;;;;5011951;28;20036;-79
2023/01/23 11:44:15;;;;;;;16.05;9.93;;;4.00;99.90;;;;;;5020160;28;20026;-80
2023/01/23 11:46:53;;;;;;;17.10;10.98;;;4.10;99.90;;;;;;5020997;28;20120;-79
2023/01/23 11:49:57;;;;;;;17.10;9.90;;;4.20;99.90;;;;;;5020253;28;20058;-79
2023/01/23 11:52:48;;;;;;;18.33;9.63;;;4.30;99.90;;;;;;4984797;28;20033;-79
2023/01/23 11:55:20;;;;;;;15.52;9.30;;;4.30;99.90;;;;;;5022649;28;20079;-79
2023/01/23 11:58:13;;;;;;;15.18;9.30;;;4.40;99.90;;;;;;5026400;28;20022;-79
2023/01/23 12:00:50;;;;;;;14.50;8.85;;;4.40;99.90;;;;;;5005195;28;20021;-80
2023/01/23 12:03:35;;;;;;;16.38;10.48;;;4.30;99.90;;;;;;5018073;28;20033;-79
2023/01/23 12:06:37;;;;;;;14.77;8.52;;;4.30;99.90;;;;;;5004553;28;20065;-79
2023/01/23 12:09:15;;;;;;;16.30;9.10;;;4.40;99.90;;;;;;5019455;28;20037;-79
2023/01/23 12:12:09;;;;;;;14.82;9.05;;;4.50;99.90;;;;;;5005347;28;20033;-79
2023/01/23 12:14:51;;;;;;;18.02;11.82;;;4.40;99.90;;;;;;5032461;28;20454;-79
2023/01/23 12:17:35;;;;;;;20.75;11.32;;;4.40;99.90;;;;;;5004743;28;20034;-79
2023/01/23 12:20:16;;;;;;;17.33;10.30;;;4.50;99.90;;;;;;5027562;28;20068;-79
2023/01/23 12:23:06;;;;;;;15.43;9.02;;;4.50;99.90;;;;;;5004345;28;20101;-78
2023/01/23 12:25:36;;;;;;;14.32;10.00;;;4.50;99.90;;;;;;5020914;28;20385;-79
2023/01/23 12:28:43;;;;;;;16.55;9.63;;;4.50;99.90;;;;;;5021609;28;20033;-79
2023/01/23 12:31:32;;;;;;;16.73;9.85;;;4.50;99.90;;;;;;4986933;28;20026;-79
2023/01/23 12:34:11;;;;;;;12.35;8.43;;;4.50;99.90;;;;;;4970821;28;20467;-80
2023/01/23 12:36:43;;;;;;;15.00;9.57;;;4.60;99.90;;;;;;4971204;28;20408;-79
2023/01/23 12:39:37;;;;;;;14.98;9.40;;;4.60;99.90;;;;;;4984725;28;20030;-79
2023/01/23 12:42:18;;;;;;;15.32;9.95;;;4.60;99.90;;;;;;4950550;28;20030;-79
2023/01/23 12:45:04;;;;;;;13.73;9.55;;;4.50;99.90;;;;;;4987443;28;20120;-82
2023/01/23 12:47:38;;;;;;;15.60;10.05;;;4.40;99.90;;;;;;4985151;28;20034;-79
2023/01/23 12:50:16;;;;;;;14.73;9.63;;;4.30;99.90;;;;;;4969924;28;20573;-80
2023/01/23 12:52:48;;;;;;;14.27;8.98;;;4.30;99.90;;;;;;4974611;28;20459;-79
2023/01/23 12:55:24;;;;;;;12.60;8.63;;;4.40;99.90;;;;;;4971230;28;20034;-79
2023/01/23 12:57:57;;;;;;;13.95;8.95;;;4.30;99.90;;;;;;4971553;28;20512;-79
2023/01/23 13:00:56;;;;;;;12.15;8.02;;;4.20;99.90;;;;;;4971110;28;20038;-79
2023/01/23 13:03:59;;;;;;;12.55;7.80;;;4.10;99.90;;;;;;5025715;28;20038;-79
2023/01/23 13:06:36;;;;;;;12.50;7.65;;;4.10;99.90;;;;;;4999553;28;20138;-79
2023/01/23 13:09:12;;;;;;;11.95;7.45;;;4.10;99.90;;;;;;5017608;28;20030;-79
2023/01/23 13:12:03;;;;;;;12.80;7.05;;;4.00;99.90;;;;;;5024201;28;20059;-80
2023/01/23 13:14:28;;;;;;;14.00;7.70;;;4.10;99.90;;;;;;5025246;28;20414;-79
2023/01/23 13:16:59;;;;;;;14.18;8.25;;;4.00;99.90;;;;;;5004259;28;20446;-80